createdAt,value
2023-04-22T00:02:46.641Z,17.8
2023-04-22T00:08:39.986Z,17.8
2023-04-22T00:14:31.429Z,17.8
2023-04-22T00:20:24.432Z,17.6
2023-04-22T00:26:16.157Z,17.6
2023-04-22T00:32:08.309Z,17.5
2023-04-22T00:38:00.565Z,17.6
2023-04-22T00:43:36.466Z,17.7
2023-04-22T00:49:29.074Z,17.7
2023-04-22T00:55:20.660Z,17.6
2023-04-22T01:00:56.788Z,17.6
2023-04-22T01:06:34.914Z,17.6
2023-04-22T01:12:11.898Z,17.4
2023-04-22T01:18:07.047Z,17.4
2023-04-22T01:23:58.330Z,17.6
2023-04-22T01:29:49.868Z,17.6
2023-04-22T01:35:42.221Z,17.6
2023-04-22T01:41:34.004Z,17.6
2023-04-22T01:47:25.571Z,17.5
2023-04-22T01:53:01.982Z,17.4
2023-04-22T01:58:38.599Z,17.4
2023-04-22T02:04:31.205Z,17.4
2023-04-22T02:10:23.897Z,17.6
2023-04-22T02:16:14.672Z,17.6
2023-04-22T02:22:07.367Z,17.5
2023-04-22T02:27:58.539Z,17.4
2023-04-22T02:33:50.004Z,17.4
2023-04-22T02:39:41.984Z,17.3
2023-04-22T02:45:32.979Z,17.3
2023-04-22T02:51:08.988Z,17.4
2023-04-22T02:57:01.027Z,17.6
2023-04-22T03:02:57.223Z,17.5
2023-04-22T03:08:49.047Z,17.4
2023-04-22T03:14:41.425Z,17.4
2023-04-22T03:20:33.731Z,17.3
2023-04-22T03:26:25.189Z,17.3
2023-04-22T03:32:17.004Z,17.3
2023-04-22T03:38:11.303Z,17.4
2023-04-22T03:44:03.994Z,17.5
2023-04-22T03:49:58.885Z,17.4
2023-04-22T03:55:50.620Z,17.4
2023-04-22T04:01:26.713Z,17.4
2023-04-22T04:07:24.756Z,17.3
2023-04-22T04:13:16.146Z,17.2
2023-04-22T04:19:08.224Z,17.3
2023-04-22T04:25:02.632Z,17.4
2023-04-22T04:30:38.681Z,17.4
2023-04-22T04:36:31.144Z,17.4
2023-04-22T04:42:07.876Z,17.3
2023-04-22T04:48:01.349Z,17.2
2023-04-22T04:53:52.210Z,17.1
2023-04-22T04:59:43.948Z,17.1
2023-04-22T05:05:37.756Z,17.3
2023-04-22T05:11:29.478Z,17.4
2023-04-22T05:17:21.225Z,17.4
2023-04-22T05:23:12.595Z,17.4
2023-04-22T05:29:03.801Z,17.3
2023-04-22T05:34:41.315Z,17.2
2023-04-22T05:40:33.275Z,17.2
2023-04-22T05:46:26.802Z,17.3
2023-04-22T05:52:19.436Z,17.3
2023-04-22T05:58:10.335Z,17.3
2023-04-22T06:04:03.905Z,17.3
2023-04-22T06:09:42.780Z,17.2
2023-04-22T06:15:39.917Z,17.1
2023-04-22T06:21:34.002Z,17.1
2023-04-22T06:27:10.710Z,17.1
2023-04-22T06:33:02.561Z,17.3
2023-04-22T06:38:53.723Z,17.3
2023-04-22T06:44:45.595Z,17.3
2023-04-22T06:50:37.176Z,17.2
2023-04-22T06:56:31.468Z,17.2
2023-04-22T07:02:08.861Z,17.1
2023-04-22T07:08:01.663Z,17.1
2023-04-22T07:13:38.022Z,17.1
2023-04-22T07:19:30.069Z,17.3
2023-04-22T07:25:22.169Z,17.3
2023-04-22T07:31:13.194Z,17.3
2023-04-22T07:36:49.899Z,17.3
2023-04-22T07:42:41.631Z,17.2
2023-04-22T07:48:33.614Z,17.1
2023-04-22T07:54:28.061Z,17.3
2023-04-22T08:00:04.426Z,17.3
2023-04-22T08:06:00.059Z,17.4
2023-04-22T08:12:08.404Z,17.3
2023-04-22T08:18:00.424Z,17.3
2023-04-22T08:23:51.504Z,17.2
2023-04-22T08:29:43.371Z,17.2
2023-04-22T08:35:24.663Z,17.4
2023-04-22T08:41:19.963Z,17.4
2023-04-22T08:47:17.820Z,17.4
2023-04-22T08:53:09.689Z,17.3
2023-04-22T08:58:46.040Z,17.3
2023-04-22T09:04:39.448Z,17.3
2023-04-22T09:10:15.849Z,17.4
2023-04-22T09:16:08.852Z,17.5
2023-04-22T09:22:00.986Z,17.5
2023-04-22T09:27:52.364Z,17.4
2023-04-22T09:33:44.581Z,17.4
2023-04-22T09:39:45.205Z,17.3
2023-04-22T09:45:37.102Z,17.4
2023-04-22T09:51:28.858Z,17.6
2023-04-22T09:57:20.228Z,17.6
2023-04-22T10:03:11.711Z,17.6
2023-04-22T10:09:03.007Z,17.6
2023-04-22T10:15:04.172Z,17.5
2023-04-22T10:20:40.439Z,17.4
2023-04-22T10:26:31.305Z,17.4
2023-04-22T10:32:10.298Z,17.3
2023-04-22T10:38:04.987Z,17.3
2023-04-22T10:43:57.052Z,17.2
2023-04-22T10:49:33.996Z,17.1
2023-04-22T10:55:25.445Z,17.1
2023-04-22T11:01:36.207Z,17.1
2023-04-22T11:12:49.153Z,16.9
2023-04-22T11:18:41.773Z,16.9
2023-04-22T11:24:36.107Z,16.9
2023-04-22T11:30:28.387Z,16.8
2023-04-22T11:36:05.505Z,16.8
2023-04-22T11:42:26.332Z,16.8
2023-04-22T11:48:18.794Z,16.8
2023-04-22T11:54:10.170Z,16.7
2023-04-22T11:59:46.664Z,16.7
2023-04-22T12:05:40.965Z,16.6
2023-04-22T12:11:32.368Z,16.6
2023-04-22T12:17:26.853Z,16.6
2023-04-22T12:23:18.463Z,16.6
2023-04-22T12:29:11.813Z,16.6
2023-04-22T12:35:03.821Z,16.6
2023-04-22T12:40:55.701Z,16.6
2023-04-22T12:46:48.183Z,16.6
2023-04-22T12:52:40.573Z,16.7
2023-04-22T12:58:32.210Z,16.6
2023-04-22T13:04:25.834Z,16.6
2023-04-22T13:10:29.286Z,16.6
2023-04-22T13:16:34.314Z,16.6
2023-04-22T13:22:28.734Z,16.6
2023-04-22T13:28:05.201Z,16.6
2023-04-22T13:34:00.822Z,16.6
2023-04-22T13:39:52.749Z,16.6
2023-04-22T13:45:44.874Z,16.6
2023-04-22T13:51:37.698Z,16.6
2023-04-22T13:57:29.741Z,16.6
2023-04-22T14:03:06.950Z,16.6
2023-04-22T14:08:44.516Z,16.6
2023-04-22T14:14:20.966Z,16.6
2023-04-22T14:19:59.736Z,16.6
2023-04-22T14:25:52.710Z,16.6
2023-04-22T14:31:44.084Z,16.6
2023-04-22T14:37:39.779Z,16.6
2023-04-22T14:43:33.308Z,16.6
2023-04-22T14:49:25.560Z,16.6
2023-04-22T14:55:25.195Z,16.6
2023-04-22T15:01:18.389Z,16.6
2023-04-22T15:07:10.107Z,16.6
2023-04-22T15:13:01.600Z,16.6
2023-04-22T15:18:53.472Z,16.7
2023-04-22T15:24:47.260Z,16.7
2023-04-22T15:30:39.008Z,16.7
2023-04-22T15:36:32.277Z,16.7
2023-04-22T15:42:24.098Z,16.7
2023-04-22T15:48:17.156Z,16.7
2023-04-22T15:53:52.990Z,16.7
2023-04-22T15:59:43.759Z,16.8
2023-04-22T16:05:59.750Z,16.7
2023-04-22T16:11:51.720Z,16.7
2023-04-22T16:17:43.119Z,16.8
2023-04-22T16:23:34.436Z,16.8
2023-04-22T16:29:25.589Z,16.7
2023-04-22T16:35:01.826Z,16.8
2023-04-22T16:40:37.871Z,16.8
2023-04-22T16:46:13.961Z,16.8
2023-04-22T16:52:05.181Z,16.8
2023-04-22T16:57:56.737Z,16.8
2023-04-22T17:03:51.070Z,16.8
2023-04-22T17:09:42.900Z,16.9
2023-04-22T17:15:34.934Z,16.9
2023-04-22T17:21:26.295Z,16.8
2023-04-22T17:27:17.260Z,16.8
2023-04-22T17:32:53.174Z,16.8
2023-04-22T17:38:46.303Z,16.8
2023-04-22T17:44:50.637Z,16.8
2023-04-22T17:50:42.301Z,16.8
2023-04-22T17:56:33.631Z,16.8
2023-04-22T18:02:25.459Z,16.8
2023-04-22T18:08:17.925Z,16.8
2023-04-22T18:14:10.005Z,16.7
2023-04-22T18:19:47.584Z,16.8
2023-04-22T18:26:06.702Z,16.8
2023-04-22T18:31:58.117Z,16.8
2023-04-22T18:37:34.273Z,16.7
2023-04-22T18:43:25.416Z,16.7
2023-04-22T18:49:01.635Z,16.7
2023-04-22T18:54:52.217Z,16.7
2023-04-22T19:00:29.826Z,16.7
2023-04-22T19:06:07.744Z,16.7
2023-04-22T19:11:58.842Z,16.7
2023-04-22T19:17:51.887Z,16.6
2023-04-22T19:23:27.920Z,16.6
2023-04-22T19:29:04.677Z,16.6
2023-04-22T19:34:41.690Z,16.6
2023-04-22T19:40:35.271Z,16.6
2023-04-22T19:45:55.534Z,16.6
2023-04-22T19:51:47.541Z,16.6
2023-04-22T19:57:38.644Z,16.6
2023-04-22T20:03:32.077Z,16.6
2023-04-22T20:09:24.210Z,16.6
2023-04-22T20:15:15.779Z,16.6
2023-04-22T20:21:08.030Z,16.6
2023-04-22T20:27:00.158Z,16.6
2023-04-22T20:32:52.049Z,16.5
2023-04-22T20:38:43.590Z,16.5
2023-04-22T20:44:34.609Z,16.5
2023-04-22T20:50:30.041Z,16.5
2023-04-22T20:56:33.560Z,16.5
2023-04-22T21:02:24.753Z,16.7
2023-04-22T21:08:18.354Z,17.1
2023-04-22T21:14:10.028Z,17.4
2023-04-22T21:20:03.176Z,17.5
2023-04-22T21:25:54.915Z,17.5
2023-04-22T21:31:54.725Z,17.5
2023-04-22T21:37:52.373Z,17.7
2023-04-22T21:43:43.874Z,17.8
2023-04-22T21:49:19.680Z,17.9
2023-04-22T21:55:11.121Z,17.8
2023-04-22T22:00:47.223Z,17.7
2023-04-22T22:06:27.312Z,17.7
2023-04-22T22:12:30.308Z,17.9
2023-04-22T22:18:23.619Z,17.9
2023-04-22T22:24:14.981Z,17.9
2023-04-22T22:30:07.345Z,17.9
2023-04-22T22:35:59.374Z,17.8
2023-04-22T22:41:51.321Z,17.7
2023-04-22T22:47:44.222Z,17.8
2023-04-22T22:53:36.062Z,17.9
2023-04-22T22:59:27.217Z,17.9
2023-04-22T23:05:21.515Z,17.9
2023-04-22T23:10:57.704Z,17.8
2023-04-22T23:16:48.842Z,17.8
2023-04-22T23:22:40.711Z,17.8
2023-04-22T23:28:31.797Z,17.9
2023-04-22T23:34:22.451Z,17.9
2023-04-22T23:40:14.717Z,17.9
2023-04-22T23:46:06.473Z,17.9
2023-04-22T23:51:43.086Z,17.8
2023-04-22T23:57:35.097Z,17.8
